Αναφορές Αεροδρομίων

 

KSJC - San Jose, California, USA
Distance from station: ΒΑ 14km
Ενημερώθηκε: 17/01/2021 10:53
Αίθριος
Αίθριος
 Ανεμος από calm
Ανεμος: Απνοια
Θερμοκρασία: 11°C
Σημείο Δρόσου: 8°C
Υγρασία: 82%
Βαρόμετρο: 1019.6 hPa
Clouds: Αίθριος
Visibility: 16 km
2021/01/17 08:53 KSJC 170853Z AUTO 00000KT 10SM CLR 11/08 A3011 RMK AO2 SLP196 T01060083 58007
KNUQ - Moffett Nas/Mtn, California, USA
Distance from station: Β 14km
Ενημερώθηκε: 17/01/2021 11:35
Αίθριος
Αίθριος
 Ανεμος από calm
Ανεμος: Απνοια
Θερμοκρασία: 9°C
Σημείο Δρόσου: 8°C
Υγρασία: 94%
Βαρόμετρο: 1020 hPa
Clouds: Αίθριος
Visibility: 16 km
2021/01/17 09:35 KNUQ 170935Z AUTO 00000KT 10SM CLR 09/08 A3012 RMK AO2
 
KPAO - Palo Alto, California, USA
Distance from station: ΒΒΔ 23km
Ενημερώθηκε: 17/01/2021 06:47
NOT Current
Αίθριος
Αίθριος
 Ανεμος από ΒΒΔ
Ανεμος: ΒΒΔ 7 km/h
Θερμοκρασία: 11°C
Σημείο Δρόσου: 9°C
Υγρασία: 88%
Βαρόμετρο: 1020.7 hPa
Clouds: Αίθριος
Visibility: 16 km
2021/01/17 04:47 KPAO 170447Z 33004KT 10SM SKC 11/09 A3014 RMK LAST
KRHV - San Jose/Reid, California, USA
Distance from station: ΑΒΑ 19km
Ενημερώθηκε: 17/01/2021 07:47
NOT Current
Αίθριος
Αίθριος
 Ανεμος από calm
Ανεμος: Απνοια
Θερμοκρασία: 11°C
Σημείο Δρόσου: 8°C
Υγρασία: 82%
Βαρόμετρο: 1020.7 hPa
Clouds: Αίθριος
Visibility: 16 km
2021/01/17 05:47 KRHV 170547Z 00000KT 10SM SKC 11/08 A3014 RMK LAST
 
KOAK - Oakland, California, USA
Distance from station: ΒΒΔ 50km
Ενημερώθηκε: 17/01/2021 10:53
Shallow fog, Αίθριος
Shallow fog, Αίθριος
 Ανεμος από calm
Ανεμος: Απνοια
Θερμοκρασία: 11°C
Σημείο Δρόσου: 8°C
Υγρασία: 82%
Βαρόμετρο: 1020.3 hPa
Περίληψη: Shallow Fog
Clouds: Αίθριος
Visibility: 16 km
2021/01/17 08:53 KOAK 170853Z 00000KT 10SM MIFG CLR 11/08 A3013 RMK AO2 SLP203 T01060083 58001
KSQL - San Carlos Airpo, California, USA
Distance from station: ΒΔ 34km
Ενημερώθηκε: 17/01/2021 11:35
Αίθριος
Αίθριος
 Ανεμος από ΔΒΔ
Ανεμος: ΔΒΔ 6 km/h
Θερμοκρασία: 9°C
Σημείο Δρόσου: 9°C
Υγρασία: 100%
Βαρόμετρο: 1020.3 hPa
Clouds: Αίθριος
Visibility: 16 km
2021/01/17 09:35 KSQL 170935Z AUTO 30003KT 10SM CLR 09/09 A3013 RMK AO2
 
KSFO - San Francisco, California, USA
Distance from station: ΒΔ 49km
Ενημερώθηκε: 17/01/2021 10:56
Αίθριος
Αίθριος
 Ανεμος από calm
Ανεμος: Απνοια
Θερμοκρασία: 11°C
Σημείο Δρόσου: 8°C
Υγρασία: 82%
Βαρόμετρο: 1020 hPa
Clouds: Αίθριος
Visibility: 16 km
2021/01/17 08:56 KSFO 170856Z 00000KT 10SM CLR 11/08 A3012 RMK AO2 SLP199 T01060083 58001
KE16 - San Martin, California, USA
Distance from station: ΑΝΑ 43km
Ενημερώθηκε: 17/01/2021 11:35
Αίθριος
Αίθριος
 Ανεμος από calm
Ανεμος: Απνοια
Θερμοκρασία: 8°C
Σημείο Δρόσου: 6°C
Υγρασία: 87%
Βαρόμετρο: 1020.3 hPa
Clouds: Αίθριος
Visibility: 16 km
2021/01/17 09:35 KE16 170935Z AUTO 00000KT 10SM CLR 08/06 A3013 RMK AO2 PWINO PNO
 
KWVI - Watsonville, California, USA
Distance from station: ΝΝΑ 44km
Ενημερώθηκε: 17/01/2021 10:53
Αίθριος
Αίθριος
 Ανεμος από calm
Ανεμος: Απνοια
Θερμοκρασία: 9°C
Σημείο Δρόσου: 7°C
Υγρασία: 87%
Βαρόμετρο: 1019.3 hPa
Clouds: Αίθριος
Visibility: 16 km
2021/01/17 08:53 KWVI 170853Z AUTO 00000KT 10SM CLR 09/07 A3010 RMK AO2 SLP193 T00890072 58008
KHAF - Half Moon Bay, California, USA
Distance from station: ΔΒΔ 50km
Ενημερώθηκε: 17/01/2021 11:35
Mist, Αίθριος
Mist, Αίθριος
 Ανεμος από calm
Ανεμος: Απνοια
Θερμοκρασία: 7°C
Σημείο Δρόσου: 7°C
Υγρασία: 100%
Βαρόμετρο: 1020 hPa
Περίληψη: Mist
Clouds: Αίθριος
Visibility: 8 km
2021/01/17 09:35 KHAF 170935Z AUTO 00000KT 5SM BR CLR 07/07 A3012 RMK AO2
 
KHWD - Hayward, California, USA
Distance from station: Β 44km
Ενημερώθηκε: 17/01/2021 10:54
Αίθριος
Αίθριος
 Ανεμος από calm
Ανεμος: Απνοια
Θερμοκρασία: 9°C
Σημείο Δρόσου: 7°C
Υγρασία: 87%
Βαρόμετρο: 1020 hPa
Clouds: Αίθριος
Visibility: 16 km
2021/01/17 08:54 KHWD 170854Z AUTO 00000KT 10SM CLR 09/07 A3012 RMK AO2 SLP208 T00940072 58003
KLVK - Livermore, California, USA
Distance from station: ΒΒΑ 51km
Ενημερώθηκε: 17/01/2021 10:53
Αίθριος
Αίθριος
 Ανεμος από ΑΒΑ
Ανεμος: ΑΒΑ 9 km/h
Θερμοκρασία: 11°C
Σημείο Δρόσου: 4°C
Υγρασία: 62%
Βαρόμετρο: 1019.6 hPa
Clouds: Αίθριος
Visibility: 16 km
2021/01/17 08:53 KLVK 170853Z AUTO 07005KT 10SM CLR 11/04 A3011 RMK AO2 SLP194 T01060044 58005